sensor_id;sensor_type;location;lat;lon;timestamp;P1;durP1;ratioP1;P2;durP2;ratioP2
13404;SDS011;6773;51.192;7.024;2023-05-10T00:01:26;28.23;;;12.87;;
13404;SDS011;6773;51.192;7.024;2023-05-10T00:03:52;25.67;;;11.97;;
13404;SDS011;6773;51.192;7.024;2023-05-10T00:06:17;25.00;;;12.00;;
13404;SDS011;6773;51.192;7.024;2023-05-10T00:08:44;25.43;;;12.37;;
13404;SDS011;6773;51.192;7.024;2023-05-10T00:11:10;28.87;;;12.67;;
13404;SDS011;6773;51.192;7.024;2023-05-10T00:13:36;25.93;;;12.00;;
13404;SDS011;6773;51.192;7.024;2023-05-10T00:16:02;26.40;;;12.43;;
13404;SDS011;6773;51.192;7.024;2023-05-10T00:18:28;30.93;;;13.17;;
13404;SDS011;6773;51.192;7.024;2023-05-10T00:20:53;31.67;;;13.33;;
13404;SDS011;6773;51.192;7.024;2023-05-10T00:23:19;33.00;;;13.97;;
13404;SDS011;6773;51.192;7.024;2023-05-10T00:25:45;35.77;;;14.23;;
13404;SDS011;6773;51.192;7.024;2023-05-10T00:28:11;32.77;;;13.77;;
13404;SDS011;6773;51.192;7.024;2023-05-10T00:30:37;33.73;;;14.30;;
13404;SDS011;6773;51.192;7.024;2023-05-10T00:33:02;32.70;;;13.67;;
13404;SDS011;6773;51.192;7.024;2023-05-10T00:35:28;36.27;;;14.90;;
13404;SDS011;6773;51.192;7.024;2023-05-10T00:37:53;33.00;;;14.23;;
13404;SDS011;6773;51.192;7.024;2023-05-10T00:40:19;35.73;;;14.47;;
13404;SDS011;6773;51.192;7.024;2023-05-10T00:42:45;35.00;;;14.40;;
13404;SDS011;6773;51.192;7.024;2023-05-10T00:45:11;39.17;;;15.00;;
13404;SDS011;6773;51.192;7.024;2023-05-10T00:47:37;46.23;;;16.73;;
13404;SDS011;6773;51.192;7.024;2023-05-10T00:50:03;40.50;;;15.00;;
13404;SDS011;6773;51.192;7.024;2023-05-10T00:52:30;40.47;;;15.63;;
13404;SDS011;6773;51.192;7.024;2023-05-10T00:54:56;35.87;;;15.33;;
13404;SDS011;6773;51.192;7.024;2023-05-10T00:57:22;38.40;;;15.57;;
13404;SDS011;6773;51.192;7.024;2023-05-10T00:59:48;39.73;;;15.70;;
13404;SDS011;6773;51.192;7.024;2023-05-10T01:02:14;45.43;;;15.90;;
13404;SDS011;6773;51.192;7.024;2023-05-10T01:04:40;42.50;;;15.30;;
13404;SDS011;6773;51.192;7.024;2023-05-10T01:07:05;44.13;;;16.47;;
13404;SDS011;6773;51.192;7.024;2023-05-10T01:09:31;44.63;;;15.90;;
13404;SDS011;6773;51.192;7.024;2023-05-10T01:11:58;48.47;;;17.70;;
13404;SDS011;6773;51.192;7.024;2023-05-10T01:14:25;41.80;;;16.20;;
13404;SDS011;6773;51.192;7.024;2023-05-10T01:16:52;41.00;;;14.80;;
13404;SDS011;6773;51.192;7.024;2023-05-10T01:19:28;36.00;;;14.77;;
13404;SDS011;6773;51.192;7.024;2023-05-10T01:40:35;28.07;;;12.40;;
13404;SDS011;6773;51.192;7.024;2023-05-10T01:43:17;28.10;;;11.90;;
13404;SDS011;6773;51.192;7.024;2023-05-10T01:45:54;29.70;;;12.70;;
13404;SDS011;6773;51.192;7.024;2023-05-10T01:48:29;26.77;;;12.30;;
13404;SDS011;6773;51.192;7.024;2023-05-10T01:50:55;23.03;;;11.13;;
13404;SDS011;6773;51.192;7.024;2023-05-10T01:53:22;24.00;;;10.77;;
13404;SDS011;6773;51.192;7.024;2023-05-10T01:55:49;22.97;;;11.10;;
13404;SDS011;6773;51.192;7.024;2023-05-10T01:58:25;26.80;;;11.13;;
13404;SDS011;6773;51.192;7.024;2023-05-10T02:00:56;24.70;;;10.90;;
13404;SDS011;6773;51.192;7.024;2023-05-10T02:03:25;19.80;;;10.23;;
13404;SDS011;6773;51.192;7.024;2023-05-10T02:05:53;22.70;;;10.10;;
13404;SDS011;6773;51.192;7.024;2023-05-10T02:08:19;26.50;;;11.47;;
13404;SDS011;6773;51.192;7.024;2023-05-10T02:10:47;23.00;;;11.33;;
13404;SDS011;6773;51.192;7.024;2023-05-10T02:13:14;29.43;;;12.40;;
13404;SDS011;6773;51.192;7.024;2023-05-10T02:15:41;24.57;;;11.47;;
13404;SDS011;6773;51.192;7.024;2023-05-10T02:18:09;29.30;;;12.57;;
13404;SDS011;6773;51.192;7.024;2023-05-10T02:20:36;24.70;;;11.77;;
13404;SDS011;6773;51.192;7.024;2023-05-10T02:23:03;27.63;;;13.33;;
13404;SDS011;6773;51.192;7.024;2023-05-10T02:25:30;28.00;;;13.67;;
13404;SDS011;6773;51.192;7.024;2023-05-10T02:27:57;31.03;;;13.60;;
13404;SDS011;6773;51.192;7.024;2023-05-10T02:30:24;31.30;;;13.33;;
13404;SDS011;6773;51.192;7.024;2023-05-10T02:32:50;30.03;;;12.63;;
13404;SDS011;6773;51.192;7.024;2023-05-10T02:35:17;27.30;;;12.07;;
13404;SDS011;6773;51.192;7.024;2023-05-10T02:37:43;24.33;;;11.40;;
13404;SDS011;6773;51.192;7.024;2023-05-10T02:40:11;25.60;;;11.43;;
13404;SDS011;6773;51.192;7.024;2023-05-10T02:42:38;22.27;;;11.50;;
13404;SDS011;6773;51.192;7.024;2023-05-10T02:45:08;21.43;;;11.80;;
13404;SDS011;6773;51.192;7.024;2023-05-10T02:47:37;21.27;;;10.90;;
13404;SDS011;6773;51.192;7.024;2023-05-10T02:50:04;25.67;;;12.20;;
13404;SDS011;6773;51.192;7.024;2023-05-10T02:52:36;22.20;;;12.10;;
13404;SDS011;6773;51.192;7.024;2023-05-10T02:55:04;25.30;;;11.53;;
13404;SDS011;6773;51.192;7.024;2023-05-10T02:57:32;26.00;;;12.40;;
13404;SDS011;6773;51.192;7.024;2023-05-10T02:59:59;23.43;;;12.33;;
13404;SDS011;6773;51.192;7.024;2023-05-10T03:02:27;28.60;;;12.00;;
13404;SDS011;6773;51.192;7.024;2023-05-10T03:04:55;26.10;;;12.73;;
13404;SDS011;6773;51.192;7.024;2023-05-10T03:07:21;27.27;;;12.63;;
13404;SDS011;6773;51.192;7.024;2023-05-10T03:09:47;30.07;;;13.40;;
13404;SDS011;6773;51.192;7.024;2023-05-10T03:17:47;27.40;;;12.60;;
13404;SDS011;6773;51.192;7.024;2023-05-10T03:20:38;26.20;;;12.90;;
13404;SDS011;6773;51.192;7.024;2023-05-10T03:23:16;26.77;;;12.73;;
13404;SDS011;6773;51.192;7.024;2023-05-10T03:25:46;26.13;;;12.90;;
13404;SDS011;6773;51.192;7.024;2023-05-10T03:28:14;28.13;;;12.87;;
13404;SDS011;6773;51.192;7.024;2023-05-10T03:30:42;30.60;;;13.97;;
13404;SDS011;6773;51.192;7.024;2023-05-10T03:33:08;34.87;;;13.90;;
13404;SDS011;6773;51.192;7.024;2023-05-10T03:35:34;32.13;;;14.20;;
13404;SDS011;6773;51.192;7.024;2023-05-10T03:38:00;35.80;;;14.07;;
13404;SDS011;6773;51.192;7.024;2023-05-10T03:40:27;31.63;;;14.47;;
13404;SDS011;6773;51.192;7.024;2023-05-10T03:43:00;30.90;;;14.07;;
13404;SDS011;6773;51.192;7.024;2023-05-10T03:45:26;31.70;;;13.60;;
13404;SDS011;6773;51.192;7.024;2023-05-10T03:47:52;30.47;;;13.47;;
13404;SDS011;6773;51.192;7.024;2023-05-10T03:50:17;30.57;;;14.33;;
13404;SDS011;6773;51.192;7.024;2023-05-10T03:52:43;34.53;;;13.43;;
13404;SDS011;6773;51.192;7.024;2023-05-10T03:55:09;28.87;;;13.83;;
13404;SDS011;6773;51.192;7.024;2023-05-10T03:57:35;36.47;;;14.00;;
13404;SDS011;6773;51.192;7.024;2023-05-10T04:00:01;29.20;;;13.87;;
13404;SDS011;6773;51.192;7.024;2023-05-10T04:02:27;29.73;;;14.83;;
13404;SDS011;6773;51.192;7.024;2023-05-10T04:04:54;35.23;;;15.07;;
13404;SDS011;6773;51.192;7.024;2023-05-10T04:07:20;59.00;;;17.23;;
13404;SDS011;6773;51.192;7.024;2023-05-10T04:09:46;32.97;;;15.20;;
13404;SDS011;6773;51.192;7.024;2023-05-10T04:12:12;35.37;;;14.27;;
13404;SDS011;6773;51.192;7.024;2023-05-10T04:14:38;31.87;;;14.77;;
13404;SDS011;6773;51.192;7.024;2023-05-10T04:17:03;44.33;;;17.73;;
13404;SDS011;6773;51.192;7.024;2023-05-10T04:19:30;41.37;;;17.33;;
13404;SDS011;6773;51.192;7.024;2023-05-10T04:21:56;39.40;;;18.27;;
13404;SDS011;6773;51.192;7.024;2023-05-10T04:24:22;43.90;;;18.33;;
13404;SDS011;6773;51.192;7.024;2023-05-10T04:26:48;42.73;;;18.13;;
13404;SDS011;6773;51.192;7.024;2023-05-10T04:29:13;44.23;;;18.83;;
13404;SDS011;6773;51.192;7.024;2023-05-10T04:31:39;40.03;;;17.27;;
13404;SDS011;6773;51.192;7.024;2023-05-10T04:34:05;42.43;;;17.17;;
13404;SDS011;6773;51.192;7.024;2023-05-10T04:36:31;41.60;;;17.00;;
13404;SDS011;6773;51.192;7.024;2023-05-10T04:38:58;53.10;;;19.03;;
13404;SDS011;6773;51.192;7.024;2023-05-10T04:41:24;44.87;;;19.83;;
13404;SDS011;6773;51.192;7.024;2023-05-10T04:43:50;52.93;;;19.53;;
13404;SDS011;6773;51.192;7.024;2023-05-10T04:46:16;46.60;;;19.07;;
13404;SDS011;6773;51.192;7.024;2023-05-10T04:48:42;48.13;;;18.03;;
13404;SDS011;6773;51.192;7.024;2023-05-10T04:51:08;50.30;;;20.13;;
13404;SDS011;6773;51.192;7.024;2023-05-10T04:53:34;50.13;;;21.17;;
13404;SDS011;6773;51.192;7.024;2023-05-10T04:56:00;55.87;;;23.13;;
13404;SDS011;6773;51.192;7.024;2023-05-10T04:58:26;53.40;;;23.83;;
13404;SDS011;6773;51.192;7.024;2023-05-10T05:00:52;58.33;;;23.33;;
13404;SDS011;6773;51.192;7.024;2023-05-10T05:03:17;55.90;;;22.70;;
13404;SDS011;6773;51.192;7.024;2023-05-10T05:05:43;59.43;;;23.63;;
13404;SDS011;6773;51.192;7.024;2023-05-10T05:08:09;65.80;;;24.10;;
13404;SDS011;6773;51.192;7.024;2023-05-10T05:10:35;70.10;;;24.47;;
13404;SDS011;6773;51.192;7.024;2023-05-10T05:13:00;67.83;;;24.60;;
13404;SDS011;6773;51.192;7.024;2023-05-10T05:15:26;61.40;;;24.77;;
13404;SDS011;6773;51.192;7.024;2023-05-10T05:17:52;63.57;;;24.50;;
13404;SDS011;6773;51.192;7.024;2023-05-10T05:20:18;74.57;;;25.20;;
13404;SDS011;6773;51.192;7.024;2023-05-10T05:22:44;64.93;;;24.37;;
13404;SDS011;6773;51.192;7.024;2023-05-10T05:25:10;64.30;;;25.50;;
13404;SDS011;6773;51.192;7.024;2023-05-10T05:27:36;62.63;;;25.47;;
13404;SDS011;6773;51.192;7.024;2023-05-10T05:30:02;63.97;;;25.33;;
13404;SDS011;6773;51.192;7.024;2023-05-10T05:32:29;71.33;;;25.50;;
13404;SDS011;6773;51.192;7.024;2023-05-10T05:34:55;62.27;;;25.10;;
13404;SDS011;6773;51.192;7.024;2023-05-10T05:37:21;57.57;;;25.37;;
13404;SDS011;6773;51.192;7.024;2023-05-10T05:39:48;60.70;;;24.23;;
13404;SDS011;6773;51.192;7.024;2023-05-10T05:42:14;60.10;;;25.03;;
13404;SDS011;6773;51.192;7.024;2023-05-10T05:44:41;62.93;;;24.97;;
13404;SDS011;6773;51.192;7.024;2023-05-10T05:47:07;56.77;;;24.70;;
13404;SDS011;6773;51.192;7.024;2023-05-10T05:49:33;63.53;;;24.47;;
13404;SDS011;6773;51.192;7.024;2023-05-10T05:51:59;49.57;;;24.03;;
13404;SDS011;6773;51.192;7.024;2023-05-10T05:54:26;50.43;;;24.70;;
13404;SDS011;6773;51.192;7.024;2023-05-10T05:56:55;55.37;;;25.47;;
13404;SDS011;6773;51.192;7.024;2023-05-10T05:59:21;46.20;;;23.03;;
13404;SDS011;6773;51.192;7.024;2023-05-10T06:01:48;56.40;;;24.67;;
13404;SDS011;6773;51.192;7.024;2023-05-10T06:04:14;47.70;;;22.97;;
13404;SDS011;6773;51.192;7.024;2023-05-10T06:06:40;46.20;;;22.43;;
13404;SDS011;6773;51.192;7.024;2023-05-10T06:09:05;47.63;;;22.07;;
13404;SDS011;6773;51.192;7.024;2023-05-10T06:11:31;45.30;;;22.33;;
13404;SDS011;6773;51.192;7.024;2023-05-10T06:13:59;46.13;;;22.60;;
13404;SDS011;6773;51.192;7.024;2023-05-10T06:16:25;48.50;;;23.03;;
13404;SDS011;6773;51.192;7.024;2023-05-10T06:18:51;49.37;;;23.30;;
13404;SDS011;6773;51.192;7.024;2023-05-10T06:21:16;46.53;;;22.67;;
13404;SDS011;6773;51.192;7.024;2023-05-10T06:23:42;41.47;;;21.67;;
13404;SDS011;6773;51.192;7.024;2023-05-10T06:26:09;42.73;;;21.03;;
13404;SDS011;6773;51.192;7.024;2023-05-10T06:28:34;39.40;;;20.63;;
13404;SDS011;6773;51.192;7.024;2023-05-10T06:31:03;41.40;;;21.07;;
13404;SDS011;6773;51.192;7.024;2023-05-10T06:33:29;43.40;;;21.27;;
13404;SDS011;6773;51.192;7.024;2023-05-10T06:35:55;39.07;;;21.60;;
13404;SDS011;6773;51.192;7.024;2023-05-10T06:38:20;44.77;;;21.00;;
13404;SDS011;6773;51.192;7.024;2023-05-10T06:40:46;38.40;;;19.50;;
13404;SDS011;6773;51.192;7.024;2023-05-10T06:43:12;42.80;;;20.70;;
13404;SDS011;6773;51.192;7.024;2023-05-10T06:45:37;36.43;;;20.90;;
13404;SDS011;6773;51.192;7.024;2023-05-10T06:48:03;40.80;;;20.87;;
13404;SDS011;6773;51.192;7.024;2023-05-10T06:50:29;42.50;;;21.33;;
13404;SDS011;6773;51.192;7.024;2023-05-10T06:52:55;37.40;;;19.63;;
13404;SDS011;6773;51.192;7.024;2023-05-10T06:55:21;40.97;;;20.00;;
13404;SDS011;6773;51.192;7.024;2023-05-10T06:57:47;36.30;;;19.03;;
13404;SDS011;6773;51.192;7.024;2023-05-10T07:00:13;36.37;;;19.83;;
13404;SDS011;6773;51.192;7.024;2023-05-10T07:02:39;33.43;;;18.63;;
13404;SDS011;6773;51.192;7.024;2023-05-10T07:05:05;41.77;;;21.53;;
13404;SDS011;6773;51.192;7.024;2023-05-10T07:07:31;35.90;;;20.37;;
13404;SDS011;6773;51.192;7.024;2023-05-10T07:09:57;38.97;;;21.90;;
13404;SDS011;6773;51.192;7.024;2023-05-10T07:12:23;39.83;;;20.87;;
13404;SDS011;6773;51.192;7.024;2023-05-10T07:14:49;39.03;;;20.40;;
13404;SDS011;6773;51.192;7.024;2023-05-10T07:17:14;41.10;;;20.97;;
13404;SDS011;6773;51.192;7.024;2023-05-10T07:19:40;42.40;;;19.40;;
13404;SDS011;6773;51.192;7.024;2023-05-10T07:22:06;34.97;;;17.30;;
13404;SDS011;6773;51.192;7.024;2023-05-10T07:24:33;38.77;;;18.67;;
13404;SDS011;6773;51.192;7.024;2023-05-10T07:26:59;41.23;;;18.73;;
13404;SDS011;6773;51.192;7.024;2023-05-10T07:29:25;41.50;;;18.70;;
13404;SDS011;6773;51.192;7.024;2023-05-10T07:31:51;46.00;;;19.07;;
13404;SDS011;6773;51.192;7.024;2023-05-10T07:34:16;48.23;;;19.60;;
13404;SDS011;6773;51.192;7.024;2023-05-10T07:36:42;41.90;;;19.00;;
13404;SDS011;6773;51.192;7.024;2023-05-10T07:39:08;50.07;;;20.00;;
13404;SDS011;6773;51.192;7.024;2023-05-10T07:41:34;48.97;;;19.60;;
13404;SDS011;6773;51.192;7.024;2023-05-10T07:44:02;50.50;;;19.90;;
13404;SDS011;6773;51.192;7.024;2023-05-10T07:46:28;51.90;;;19.63;;
13404;SDS011;6773;51.192;7.024;2023-05-10T07:48:54;54.33;;;21.13;;
13404;SDS011;6773;51.192;7.024;2023-05-10T07:51:20;52.00;;;20.73;;
13404;SDS011;6773;51.192;7.024;2023-05-10T07:53:46;48.07;;;20.60;;
13404;SDS011;6773;51.192;7.024;2023-05-10T07:56:25;50.80;;;20.33;;
13404;SDS011;6773;51.192;7.024;2023-05-10T07:58:54;52.50;;;19.37;;
13404;SDS011;6773;51.192;7.024;2023-05-10T08:01:21;43.37;;;19.73;;
13404;SDS011;6773;51.192;7.024;2023-05-10T08:03:47;45.40;;;19.53;;
13404;SDS011;6773;51.192;7.024;2023-05-10T08:06:13;43.57;;;18.63;;
13404;SDS011;6773;51.192;7.024;2023-05-10T08:08:40;39.23;;;16.70;;
13404;SDS011;6773;51.192;7.024;2023-05-10T08:11:06;38.47;;;18.20;;
13404;SDS011;6773;51.192;7.024;2023-05-10T08:13:32;36.60;;;18.97;;
13404;SDS011;6773;51.192;7.024;2023-05-10T08:15:58;37.60;;;18.13;;
13404;SDS011;6773;51.192;7.024;2023-05-10T08:18:24;32.80;;;16.97;;
13404;SDS011;6773;51.192;7.024;2023-05-10T08:20:50;39.87;;;17.60;;
13404;SDS011;6773;51.192;7.024;2023-05-10T08:23:16;30.73;;;15.43;;
13404;SDS011;6773;51.192;7.024;2023-05-10T08:25:42;35.10;;;17.73;;
13404;SDS011;6773;51.192;7.024;2023-05-10T08:28:07;31.87;;;17.17;;
13404;SDS011;6773;51.192;7.024;2023-05-10T08:30:33;33.60;;;17.50;;
13404;SDS011;6773;51.192;7.024;2023-05-10T08:32:59;37.17;;;17.07;;
13404;SDS011;6773;51.192;7.024;2023-05-10T08:35:25;32.60;;;16.70;;
13404;SDS011;6773;51.192;7.024;2023-05-10T08:37:51;27.80;;;16.03;;
13404;SDS011;6773;51.192;7.024;2023-05-10T08:40:17;27.97;;;15.17;;
13404;SDS011;6773;51.192;7.024;2023-05-10T08:42:49;33.90;;;16.27;;
13404;SDS011;6773;51.192;7.024;2023-05-10T08:45:20;33.13;;;16.57;;
13404;SDS011;6773;51.192;7.024;2023-05-10T08:47:48;32.27;;;15.93;;
13404;SDS011;6773;51.192;7.024;2023-05-10T08:50:16;37.73;;;16.87;;
13404;SDS011;6773;51.192;7.024;2023-05-10T08:52:45;42.40;;;17.97;;
13404;SDS011;6773;51.192;7.024;2023-05-10T08:55:12;35.73;;;16.70;;
13404;SDS011;6773;51.192;7.024;2023-05-10T08:57:38;39.57;;;17.83;;
13404;SDS011;6773;51.192;7.024;2023-05-10T09:00:04;41.17;;;18.27;;
13404;SDS011;6773;51.192;7.024;2023-05-10T09:02:31;43.57;;;18.87;;
13404;SDS011;6773;51.192;7.024;2023-05-10T09:04:56;44.70;;;18.67;;
13404;SDS011;6773;51.192;7.024;2023-05-10T09:07:22;42.97;;;20.10;;
13404;SDS011;6773;51.192;7.024;2023-05-10T09:09:48;42.60;;;21.00;;
13404;SDS011;6773;51.192;7.024;2023-05-10T09:12:14;39.80;;;19.93;;
13404;SDS011;6773;51.192;7.024;2023-05-10T09:14:41;46.10;;;21.73;;
13404;SDS011;6773;51.192;7.024;2023-05-10T09:17:09;42.80;;;21.07;;
13404;SDS011;6773;51.192;7.024;2023-05-10T09:19:35;39.30;;;19.43;;
13404;SDS011;6773;51.192;7.024;2023-05-10T09:22:01;36.53;;;19.13;;
13404;SDS011;6773;51.192;7.024;2023-05-10T09:24:28;38.90;;;20.13;;
13404;SDS011;6773;51.192;7.024;2023-05-10T09:26:54;38.40;;;19.93;;
13404;SDS011;6773;51.192;7.024;2023-05-10T09:29:23;38.13;;;18.93;;
13404;SDS011;6773;51.192;7.024;2023-05-10T09:31:49;33.87;;;18.20;;
13404;SDS011;6773;51.192;7.024;2023-05-10T09:34:20;36.97;;;19.73;;
13404;SDS011;6773;51.192;7.024;2023-05-10T09:36:50;42.67;;;18.73;;
13404;SDS011;6773;51.192;7.024;2023-05-10T09:39:21;39.67;;;20.00;;
13404;SDS011;6773;51.192;7.024;2023-05-10T09:42:02;32.43;;;18.03;;
13404;SDS011;6773;51.192;7.024;2023-05-10T09:44:32;42.03;;;19.83;;
13404;SDS011;6773;51.192;7.024;2023-05-10T09:46:58;38.73;;;19.53;;
13404;SDS011;6773;51.192;7.024;2023-05-10T09:49:25;39.73;;;21.10;;
13404;SDS011;6773;51.192;7.024;2023-05-10T09:52:00;39.53;;;20.23;;
13404;SDS011;6773;51.192;7.024;2023-05-10T09:54:30;36.97;;;19.73;;
13404;SDS011;6773;51.192;7.024;2023-05-10T09:56:56;39.00;;;21.03;;
13404;SDS011;6773;51.192;7.024;2023-05-10T09:59:24;42.60;;;21.23;;
13404;SDS011;6773;51.192;7.024;2023-05-10T10:01:51;45.43;;;21.53;;
13404;SDS011;6773;51.192;7.024;2023-05-10T10:04:17;42.03;;;21.17;;
13404;SDS011;6773;51.192;7.024;2023-05-10T10:06:44;38.93;;;21.50;;
13404;SDS011;6773;51.192;7.024;2023-05-10T10:09:11;33.97;;;19.73;;
13404;SDS011;6773;51.192;7.024;2023-05-10T10:11:37;38.70;;;20.33;;
13404;SDS011;6773;51.192;7.024;2023-05-10T10:14:04;38.83;;;20.50;;
13404;SDS011;6773;51.192;7.024;2023-05-10T10:16:30;37.43;;;19.83;;
13404;SDS011;6773;51.192;7.024;2023-05-10T10:18:57;35.80;;;19.63;;
13404;SDS011;6773;51.192;7.024;2023-05-10T10:21:23;31.37;;;18.47;;
13404;SDS011;6773;51.192;7.024;2023-05-10T10:23:50;28.93;;;18.27;;
13404;SDS011;6773;51.192;7.024;2023-05-10T10:26:17;29.80;;;18.77;;
13404;SDS011;6773;51.192;7.024;2023-05-10T10:36:47;25.50;;;16.27;;
13404;SDS011;6773;51.192;7.024;2023-05-10T10:39:13;27.30;;;16.03;;
13404;SDS011;6773;51.192;7.024;2023-05-10T10:41:40;26.87;;;15.57;;
13404;SDS011;6773;51.192;7.024;2023-05-10T10:57:52;21.50;;;14.20;;
13404;SDS011;6773;51.192;7.024;2023-05-10T11:00:26;22.30;;;14.80;;
13404;SDS011;6773;51.192;7.024;2023-05-10T11:05:42;19.23;;;13.70;;
13404;SDS011;6773;51.192;7.024;2023-05-10T11:08:12;21.10;;;14.50;;
13404;SDS011;6773;51.192;7.024;2023-05-10T11:10:39;21.57;;;13.57;;
13404;SDS011;6773;51.192;7.024;2023-05-10T11:13:16;21.67;;;13.83;;
13404;SDS011;6773;51.192;7.024;2023-05-10T11:15:52;21.80;;;14.27;;
13404;SDS011;6773;51.192;7.024;2023-05-10T11:18:31;22.60;;;13.70;;
13404;SDS011;6773;51.192;7.024;2023-05-10T11:20:58;19.00;;;13.60;;
13404;SDS011;6773;51.192;7.024;2023-05-10T11:26:11;20.63;;;13.30;;
13404;SDS011;6773;51.192;7.024;2023-05-10T11:28:43;18.87;;;13.20;;
13404;SDS011;6773;51.192;7.024;2023-05-10T11:31:10;19.10;;;12.50;;
13404;SDS011;6773;51.192;7.024;2023-05-10T11:36:43;17.40;;;13.13;;
13404;SDS011;6773;51.192;7.024;2023-05-10T11:39:02;16.43;;;10.83;;
13404;SDS011;6773;51.192;7.024;2023-05-10T11:41:30;16.77;;;12.33;;
13404;SDS011;6773;51.192;7.024;2023-05-10T11:43:56;17.40;;;12.17;;
13404;SDS011;6773;51.192;7.024;2023-05-10T11:46:23;18.80;;;11.67;;
13404;SDS011;6773;51.192;7.024;2023-05-10T11:48:51;16.73;;;11.50;;
13404;SDS011;6773;51.192;7.024;2023-05-10T11:51:20;16.70;;;11.43;;
13404;SDS011;6773;51.192;7.024;2023-05-10T11:53:48;20.63;;;12.23;;
13404;SDS011;6773;51.192;7.024;2023-05-10T11:56:15;16.13;;;12.60;;
13404;SDS011;6773;51.192;7.024;2023-05-10T11:58:41;18.20;;;13.23;;
13404;SDS011;6773;51.192;7.024;2023-05-10T12:01:07;17.67;;;13.67;;
13404;SDS011;6773;51.192;7.024;2023-05-10T12:03:33;18.03;;;12.60;;
13404;SDS011;6773;51.192;7.024;2023-05-10T12:06:00;17.97;;;12.40;;
13404;SDS011;6773;51.192;7.024;2023-05-10T12:08:26;19.97;;;12.80;;
13404;SDS011;6773;51.192;7.024;2023-05-10T12:10:54;19.70;;;11.83;;
13404;SDS011;6773;51.192;7.024;2023-05-10T12:13:32;21.53;;;13.53;;
13404;SDS011;6773;51.192;7.024;2023-05-10T12:15:58;19.67;;;12.93;;
13404;SDS011;6773;51.192;7.024;2023-05-10T12:18:24;16.40;;;13.13;;
13404;SDS011;6773;51.192;7.024;2023-05-10T12:20:53;18.70;;;13.30;;
13404;SDS011;6773;51.192;7.024;2023-05-10T12:23:20;23.13;;;14.10;;
13404;SDS011;6773;51.192;7.024;2023-05-10T12:25:45;22.67;;;15.23;;
13404;SDS011;6773;51.192;7.024;2023-05-10T12:28:12;19.93;;;14.03;;
13404;SDS011;6773;51.192;7.024;2023-05-10T12:30:38;18.10;;;13.53;;
13404;SDS011;6773;51.192;7.024;2023-05-10T12:33:08;19.83;;;13.80;;
13404;SDS011;6773;51.192;7.024;2023-05-10T12:35:43;23.17;;;13.77;;
13404;SDS011;6773;51.192;7.024;2023-05-10T12:38:32;19.93;;;14.83;;
13404;SDS011;6773;51.192;7.024;2023-05-10T12:41:06;21.73;;;13.57;;
13404;SDS011;6773;51.192;7.024;2023-05-10T12:43:33;18.50;;;12.57;;
13404;SDS011;6773;51.192;7.024;2023-05-10T12:46:04;19.53;;;13.80;;
13404;SDS011;6773;51.192;7.024;2023-05-10T12:48:30;17.90;;;12.40;;
13404;SDS011;6773;51.192;7.024;2023-05-10T12:50:56;18.20;;;11.73;;
13404;SDS011;6773;51.192;7.024;2023-05-10T12:53:22;15.53;;;12.73;;
13404;SDS011;6773;51.192;7.024;2023-05-10T12:55:48;20.10;;;13.13;;
13404;SDS011;6773;51.192;7.024;2023-05-10T12:58:13;18.73;;;13.00;;
13404;SDS011;6773;51.192;7.024;2023-05-10T13:00:39;19.30;;;13.20;;
13404;SDS011;6773;51.192;7.024;2023-05-10T13:03:04;18.43;;;13.07;;
13404;SDS011;6773;51.192;7.024;2023-05-10T13:05:33;19.83;;;13.20;;
13404;SDS011;6773;51.192;7.024;2023-05-10T13:07:59;19.47;;;13.90;;
13404;SDS011;6773;51.192;7.024;2023-05-10T13:10:25;21.73;;;14.27;;
13404;SDS011;6773;51.192;7.024;2023-05-10T13:12:51;22.20;;;14.73;;
13404;SDS011;6773;51.192;7.024;2023-05-10T13:15:16;22.33;;;14.63;;
13404;SDS011;6773;51.192;7.024;2023-05-10T13:17:42;20.23;;;13.00;;
13404;SDS011;6773;51.192;7.024;2023-05-10T13:20:10;19.23;;;13.93;;
13404;SDS011;6773;51.192;7.024;2023-05-10T13:22:36;26.63;;;15.93;;
13404;SDS011;6773;51.192;7.024;2023-05-10T13:25:02;26.83;;;16.90;;
13404;SDS011;6773;51.192;7.024;2023-05-10T13:27:28;23.70;;;16.30;;
13404;SDS011;6773;51.192;7.024;2023-05-10T13:29:54;26.03;;;17.03;;
13404;SDS011;6773;51.192;7.024;2023-05-10T13:32:20;26.27;;;17.37;;
13404;SDS011;6773;51.192;7.024;2023-05-10T13:34:46;26.23;;;16.50;;
13404;SDS011;6773;51.192;7.024;2023-05-10T13:37:11;26.03;;;17.40;;
13404;SDS011;6773;51.192;7.024;2023-05-10T13:39:37;30.80;;;19.13;;
13404;SDS011;6773;51.192;7.024;2023-05-10T13:42:03;27.93;;;18.37;;
13404;SDS011;6773;51.192;7.024;2023-05-10T13:44:30;26.87;;;18.60;;
13404;SDS011;6773;51.192;7.024;2023-05-10T13:46:56;29.77;;;18.33;;
13404;SDS011;6773;51.192;7.024;2023-05-10T13:49:21;26.60;;;17.63;;
13404;SDS011;6773;51.192;7.024;2023-05-10T13:51:47;25.80;;;16.90;;
13404;SDS011;6773;51.192;7.024;2023-05-10T13:54:13;25.47;;;16.67;;
13404;SDS011;6773;51.192;7.024;2023-05-10T13:56:39;26.57;;;17.50;;
13404;SDS011;6773;51.192;7.024;2023-05-10T13:59:05;24.03;;;16.30;;
13404;SDS011;6773;51.192;7.024;2023-05-10T14:01:32;22.13;;;15.63;;
13404;SDS011;6773;51.192;7.024;2023-05-10T14:03:59;19.57;;;14.53;;
13404;SDS011;6773;51.192;7.024;2023-05-10T14:06:25;23.23;;;14.87;;
13404;SDS011;6773;51.192;7.024;2023-05-10T14:08:52;18.57;;;13.87;;
13404;SDS011;6773;51.192;7.024;2023-05-10T14:11:18;20.07;;;14.50;;
13404;SDS011;6773;51.192;7.024;2023-05-10T14:13:44;19.80;;;14.95;;
13404;SDS011;6773;51.192;7.024;2023-05-10T14:16:10;19.70;;;14.23;;
13404;SDS011;6773;51.192;7.024;2023-05-10T14:18:36;19.53;;;14.43;;
13404;SDS011;6773;51.192;7.024;2023-05-10T14:21:02;21.53;;;14.40;;
13404;SDS011;6773;51.192;7.024;2023-05-10T14:23:28;19.83;;;14.27;;
13404;SDS011;6773;51.192;7.024;2023-05-10T14:25:55;21.13;;;14.15;;
13404;SDS011;6773;51.192;7.024;2023-05-10T14:28:21;20.97;;;14.60;;
13404;SDS011;6773;51.192;7.024;2023-05-10T14:30:48;19.57;;;14.63;;
13404;SDS011;6773;51.192;7.024;2023-05-10T14:33:14;20.77;;;14.03;;
13404;SDS011;6773;51.192;7.024;2023-05-10T14:35:41;21.50;;;13.77;;
13404;SDS011;6773;51.192;7.024;2023-05-10T14:38:07;21.60;;;14.13;;
13404;SDS011;6773;51.192;7.024;2023-05-10T14:40:33;18.47;;;13.47;;
13404;SDS011;6773;51.192;7.024;2023-05-10T14:42:59;20.73;;;14.57;;
13404;SDS011;6773;51.192;7.024;2023-05-10T14:45:25;22.10;;;14.33;;
13404;SDS011;6773;51.192;7.024;2023-05-10T14:47:51;19.87;;;14.07;;
13404;SDS011;6773;51.192;7.024;2023-05-10T14:50:17;17.67;;;12.70;;
13404;SDS011;6773;51.192;7.024;2023-05-10T14:52:43;19.40;;;13.47;;
13404;SDS011;6773;51.192;7.024;2023-05-10T14:55:09;19.83;;;13.00;;
13404;SDS011;6773;51.192;7.024;2023-05-10T14:57:35;18.23;;;13.50;;
13404;SDS011;6773;51.192;7.024;2023-05-10T15:00:01;17.33;;;13.03;;
13404;SDS011;6773;51.192;7.024;2023-05-10T15:02:27;18.87;;;14.27;;
13404;SDS011;6773;51.192;7.024;2023-05-10T15:04:53;20.53;;;14.83;;
13404;SDS011;6773;51.192;7.024;2023-05-10T15:07:19;16.50;;;12.03;;
13404;SDS011;6773;51.192;7.024;2023-05-10T15:09:45;14.47;;;10.80;;
13404;SDS011;6773;51.192;7.024;2023-05-10T15:12:11;16.00;;;10.27;;
13404;SDS011;6773;51.192;7.024;2023-05-10T15:14:37;14.23;;;10.10;;
13404;SDS011;6773;51.192;7.024;2023-05-10T15:17:02;14.93;;;10.73;;
13404;SDS011;6773;51.192;7.024;2023-05-10T15:19:28;14.63;;;8.90;;
13404;SDS011;6773;51.192;7.024;2023-05-10T15:21:54;11.83;;;8.90;;
13404;SDS011;6773;51.192;7.024;2023-05-10T15:24:20;12.10;;;8.50;;
13404;SDS011;6773;51.192;7.024;2023-05-10T15:26:46;9.80;;;7.33;;
13404;SDS011;6773;51.192;7.024;2023-05-10T15:29:12;10.37;;;7.50;;